الصفحة الرئيسية
METAR-TAF:

METAR-TAF

مطار :

Cape Romanzof, ألاسكا, الولايات المتحدة

دائرة عرض: 61-47N, خط طول: 166-02W, ارتفاع: 139 متر

مراقبة الطقس الحالي

تاريخ ووقت الإصدار 25 دقيقة قبل الساعة 00:39UTC
ريح 8 عقدة من الغرب
درجة الحرارة 7°درجة مئوية
الرطوبة 93%
ضغط 1015 hPa
الرؤية: 16.1 كم
غيوم مفككة على ارتفاع 500 قدم

METAR: PACZ 180039Z AUTO 27008KT 10SM BKN005 07/06 A2997 RMK AO2 SLP154

زمن: 17:04 (01:04 UTC)


TAF: مفقودة

أرصاد الطقس والتوقعات من أكثر من 4000 مطار (تقارير الطقس للمطار METAR والتنبؤ بالطقس بالمطارTAF).

المحطات المتاحة هي النقط الصفراء والحمراء على الخريطة.

حرك المؤشر فوق النقطة لمعرفة اسم المحطة.

ثم انقر لمعرفة أرصاد وتوقعات الطقس.

لتغيير الخارطة: اضغط على الأزرار الخضراء مع رمز الصليب الأسود للتكبير. على الزر الأخضر مع شرطة للتصغير، أو على الأسهم الخضراء للخرائط المجاورة.


METAR-TAF: